TimeAKDT,TemperatureF,Dew PointF,Humidity,Sea Level PressureIn,VisibilityMPH,Wind Direction,Wind SpeedMPH,Gust SpeedMPH,PrecipitationIn,Events,Conditions,WindDirDegrees,DateUTC
12:53 AM,32.0,15.1,50,29.99,10.0,ESE,5.8,-,N/A,,Clear,110,2012-10-30 08:53:00
1:53 AM,33.1,17.1,52,29.98,10.0,ESE,6.9,-,N/A,,Mostly Cloudy,110,2012-10-30 09:53:00
2:53 AM,35.1,16.0,46,29.97,10.0,ESE,8.1,-,N/A,,Overcast,120,2012-10-30 10:53:00
3:53 AM,33.1,17.1,52,29.97,10.0,Calm,Calm,-,N/A,,Overcast,0,2012-10-30 11:53:00
4:53 AM,34.0,18.0,52,29.97,10.0,ESE,5.8,-,0.00,,Overcast,120,2012-10-30 12:53:00
5:53 AM,34.0,21.0,59,29.95,10.0,ESE,4.6,-,N/A,,Overcast,110,2012-10-30 13:53:00
6:15 AM,35.6,24.8,65,29.95,9.0,SE,11.5,-,N/A,,Overcast,130,2012-10-30 14:15:00
6:42 AM,35.6,26.6,70,29.94,7.0,ESE,10.4,-,0.00,,Overcast,110,2012-10-30 14:42:00
6:53 AM,37.0,28.9,73,29.94,7.0,ESE,10.4,-,0.00,,Overcast,120,2012-10-30 14:53:00
7:53 AM,36.0,28.9,76,29.93,10.0,East,9.2,-,0.00,,Overcast,100,2012-10-30 15:53:00
8:37 AM,37.4,30.2,75,29.94,5.0,ESE,10.4,-,0.00,Snow,Light Snow,120,2012-10-30 16:37:00
8:53 AM,36.0,30.9,82,29.94,7.0,ESE,10.4,-,0.00,Snow,Light Snow,110,2012-10-30 16:53:00
9:53 AM,37.4,30.2,75,29.93,4.0,ESE,10.4,-,N/A,Rain-Snow,Light Rain,120,2012-10-30 17:53:00
10:53 AM,37.9,32.0,79,29.92,7.0,SE,8.1,-,0.00,,Haze,130,2012-10-30 18:53:00
11:53 AM,37.0,33.1,86,29.91,4.0,ESE,12.7,19.6,0.03,Rain,Light Rain,110,2012-10-30 19:53:00
12:53 PM,37.9,33.1,83,29.91,8.0,ESE,15.0,-,0.02,Rain,Light Rain,120,2012-10-30 20:53:00
1:53 PM,37.9,33.1,83,29.89,5.0,SE,15.0,-,0.03,Rain,Rain,130,2012-10-30 21:53:00
2:53 PM,37.9,34.0,86,29.87,10.0,ESE,13.8,21.9,0.01,Rain,Light Rain,110,2012-10-30 22:53:00
3:53 PM,39.9,34.0,79,29.86,8.0,ESE,13.8,23.0,0.02,Rain,Light Rain,110,2012-10-30 23:53:00
4:27 PM,39.2,33.8,81,29.84,10.0,ESE,12.7,-,0.00,,Overcast,110,2012-10-31 00:27:00
4:53 PM,41.0,34.0,76,29.83,10.0,ESE,13.8,-,0.00,,Overcast,120,2012-10-31 00:53:00
5:53 PM,41.0,33.1,73,29.81,10.0,ESE,16.1,21.9,N/A,,Overcast,110,2012-10-31 01:53:00
6:53 PM,42.1,33.1,70,29.81,10.0,SE,12.7,-,N/A,,Overcast,140,2012-10-31 02:53:00
7:53 PM,41.0,33.1,73,29.80,10.0,ESE,13.8,21.9,N/A,,Overcast,120,2012-10-31 03:53:00
8:53 PM,41.0,34.0,76,29.78,10.0,ESE,13.8,23.0,0.00,Rain,Light Rain,120,2012-10-31 04:53:00
9:53 PM,41.0,34.0,76,29.77,10.0,ESE,13.8,20.7,0.00,Rain,Light Rain,110,2012-10-31 05:53:00
10:53 PM,41.0,34.0,76,29.76,10.0,ESE,12.7,21.9,0.01,,Overcast,110,2012-10-31 06:53:00
11:00 PM,41.0,33.8,76,29.75,10.0,ESE,12.7,-,0.00,Rain,Light Rain,120,2012-10-31 07:00:00
11:45 PM,41.0,33.8,76,29.75,10.0,ESE,15.0,-,0.00,Rain,Light Rain,110,2012-10-31 07:45:00
11:53 PM,41.0,34.0,76,29.75,10.0,ESE,16.1,-,0.00,Rain,Light Rain,110,2012-10-31 07:53:00